Kezdőlap
METAR-TAF:

METAR-TAF

Repülőterek :

Győr, Magyarország

földrajzi szélesség: 47-37-28N, földrajzi hosszúság: 017-48-49E, magasság: 129 m

Jelenlegi meteorológiai megfigyelések

A jelentés 29 perccel ezelõtt készült, 21:15 UTC
Különbözõ irányokból fújó szél 2 kt
Hőmérséklet 15°C
Páratartalom 94%
Légköri nyomás 1021 hPa
Látótávolság 10 km, vagy több
felhőtlen 1500 m magasságban, és nincs gomolyfelhõ

METAR: LHPR 262115Z AUTO VRB02KT CAVOK 15/14 Q1021 RMK BLU

Idő: 23:44 (21:44 UTC)


TAF: hiányzik

Meteorológiai megfigyelések és előrejelzések több, mint 4000 repülőtéren (METAR és TAF jelentéseket).

A térképen piros és sárga pontok jelzik az elérhető meteorológiai állomásokat.

Mozgassa az egeret a pont fölött, hogy megjelenjen az állomás neve.

Azután kattintson az időjárási megfigyelések és előrejelzések megtekintéséhez.

A térkép megváltoztatása: kattintson a fekete keresztel jelölt zöld gombra ráközelítéshez, a vonallal jelölt zöld gombra távolításhoz, vagy a zöld nyilakra a szomszédos térképek eléréséhez.


METAR-TAF: